Flight Track Log - Related Links

Times and Time Zones

All times are in EDT time to prevent confusion due to time zone crossing. See the UAL3776 flight status page for this flight to view local times or setup timezone preferences in your user account.

Time Position Orientation Groundspeed Altitude Reporting Facility
EDT Latitude Longitude Course Direction KTS MPH feet Rate Location/Type
Sat 06:59:47 PM 41.7083 -71.4447 241° Southwest 166 191 1,400  Level Boston Center
Sat 07:00:48 PM 41.7006 -71.5031 260° West 166 191 4,200 2,622 Climbing Boston Center
Sat 07:01:46 PM 41.7197 -71.5639 293° West 185 213 6,600 3,203 Climbing Boston Center
Sat 07:02:46 PM 41.7786 -71.6383 317° Northwest 228 262 10,500 3,174 Climbing Boston Center
Sat 07:03:47 PM 41.8125 -71.7269 297° West 256 295 13,000 2,281 Climbing Boston Center
Sat 07:04:47 PM 41.8464 -71.8214 296° West 296 341 15,100 2,319 Climbing Boston Center
Sat 07:05:00 PM 41.7234 -71.4297 241° Southwest  Level Estimated
Sat 07:05:46 PM 41.8867 -71.9408 294° West 322 371 17,600  Level Boston Center
Sat 07:06:47 PM 41.9286 -72.0522 297° West 333 383 19,600 1,918 Climbing Boston Center
Sat 07:07:48 PM 41.9353 -72.1778 274° West 333 383 21,500 1,884 Climbing Boston Center
Sat 07:08:48 PM 41.9397 -72.3089 273° West 344 396 23,400 1,729 Climbing Boston Center
Sat 07:09:46 PM 41.9439 -72.4428 272° West 355 409 24,900 1,627 Climbing Boston Center
Sat 07:10:46 PM 41.9461 -72.5797 271° West 362 417 26,600 1,587 Climbing Boston Center
Sat 07:11:47 PM 41.9519 -72.7025 274° West 367 422 28,100 1,339 Climbing Boston Center
Sat 07:12:47 PM 41.8994 -72.8222 240° Southwest 352 405 29,300 1,190 Climbing Boston Center
Sat 07:13:48 PM 41.8303 -72.9361 231° Southwest 371 427 30,500 1,190 Climbing Boston Center
Sat 07:14:48 PM 41.7589 -73.0578 232° Southwest 400 460 31,700 750 Climbing Boston Center
Sat 07:15:48 PM 41.6872 -73.1794 232° Southwest 413 475 32,000 153 Climbing Boston Center
Sat 07:16:46 PM 41.6133 -73.3064 232° Southwest 423 487 32,000  Level Boston Center
Sat 07:18:18 PM 41.5031 -73.4969 232° Southwest 435 501 32,000  Level New York Center
Sat 07:19:17 PM 41.4269 -73.6294 233° Southwest 449 517 32,000  Level New York Center
Sat 07:20:17 PM 41.3467 -73.7586 230° Southwest 456 525 32,000  Level New York Center
Sat 07:21:16 PM 41.2764 -73.8933 235° Southwest 456 525 32,000 -252 Level New York Center
Sat 07:22:16 PM 41.2061 -74.0281 235° Southwest 456 525 31,500 -750 Descending New York Center
Sat 07:23:16 PM 41.1336 -74.1650 235° Southwest 451 519 30,500 -992 Descending New York Center
Sat 07:24:17 PM 41.0611 -74.2933 233° Southwest 451 519 29,500 -1,000 Descending New York Center
Sat 07:25:16 PM 40.9947 -74.4247 236° Southwest 445 512 28,500 -756 Descending New York Center
Sat 07:26:16 PM 40.9261 -74.5528 235° Southwest 438 504 28,000 -250 Descending New York Center
Sat 07:27:16 PM 40.8717 -74.6897 242° Southwest 428 493 28,000  Level New York Center
Sat 07:28:17 PM 40.8150 -74.8264 241° Southwest 428 493 28,000  Level New York Center
Sat 07:29:18 PM 40.7539 -74.9597 239° Southwest 428 493 28,000 -50 Level New York Center
Sat 07:30:18 PM 40.6908 -75.0953 239° Southwest 428 493 27,900 -102 Descending New York Center
Sat 07:31:16 PM 40.6275 -75.2281 238° Southwest 433 498 27,800 -555 Descending New York Center
Sat 07:32:17 PM 40.5661 -75.3608 239° Southwest 433 498 26,800 -1,475 Descending New York Center
Sat 07:33:18 PM 40.4981 -75.5036 238° Southwest 433 498 24,800 -1,884 Descending New York Center
Sat 07:34:18 PM 40.4386 -75.6303 238° Southwest 428 493 23,000 -1,881 Descending New York Center
Sat 07:35:16 PM 40.3769 -75.7594 238° Southwest 423 487 21,100 -1,576 Descending New York Center
Sat 07:36:16 PM 40.3172 -75.8886 239° Southwest 418 481 19,900 -793 Descending New York Center
Sat 07:37:17 PM 40.2558 -76.0064 236° Southwest 426 490 19,500 -837 Descending New York Center
Sat 07:39:08 PM 40.1333 -76.2500 237° Southwest 402 463 17,500 -847 Descending Potomac TRACON
Sat 07:40:14 PM 40.0833 -76.3833 244° Southwest 389 448 17,000 -750 Descending Potomac TRACON
Sat 07:41:08 PM 40.0167 -76.5000 233° Southwest 403 464 16,000 -1,053 Descending Potomac TRACON
Sat 07:42:08 PM 39.9667 -76.6167 241° Southwest 375 432 15,000 -476 Descending Potomac TRACON
Sat 07:43:14 PM 39.9167 -76.7333 241° Southwest 381 438 15,000  Level Potomac TRACON
Sat 07:44:02 PM 39.8667 -76.8333 237° Southwest 388 447 15,000 -1,000 Level Potomac TRACON
Sat 07:45:08 PM 39.8000 -76.9667 237° Southwest 385 443 13,100 -1,429 Descending Potomac TRACON
Sat 07:46:08 PM 39.7500 -77.0833 241° Southwest 372 428 12,000 -1,050 Descending Potomac TRACON
Sat 07:47:08 PM 39.7000 -77.2000 241° Southwest 372 428 11,000 -1,000 Descending Potomac TRACON
Sat 07:48:08 PM 39.6333 -77.2833 224° Southwest 376 433 10,000 -526 Descending Potomac TRACON
Sat 07:49:02 PM 39.5500 -77.3500 212° Southwest 380 437 10,000 -150 Level Potomac TRACON
Sat 07:50:08 PM 39.4500 -77.4000 201° Southwest 305 351 9,700 -857 Descending Potomac TRACON
Sat 07:51:08 PM 39.3833 -77.4500 210° Southwest 275 316 8,200 -1,400 Descending Potomac TRACON
Sat 07:52:08 PM 39.3167 -77.4500 180° South 260 299 6,900 -1,100 Descending Potomac TRACON
Sat 07:53:08 PM 39.2333 -77.4500 180° South 265 305 6,000 -1,316 Descending Potomac TRACON
Sat 07:54:02 PM 39.1667 -77.4500 180° South 258 297 4,400 -1,550 Descending Potomac TRACON
Sat 07:55:08 PM 39.1000 -77.4500 180° South 230 265 2,900 -1,190 Descending Potomac TRACON
Sat 07:56:08 PM 39.0500 -77.4667 195° South 178 205 1,900 -900 Descending Potomac TRACON
Sat 07:57:08 PM 39.0167 -77.4667 180° South 129 148 1,100 -800 Descending Potomac TRACON
Sat 07:59:00 PM 38.9474 -77.4599 180° South  Level Estimated
Sat 08:06:00 PM 38.9474 -77.4599 349° North  Level Estimated
Sat 08:07:00 PM 38.9474 -77.4599 349° North  Level Estimated
Sat 08:08:00 PM 38.9474 -77.4599 349° North  Level Estimated
Sat 08:09:00 PM 38.9474 -77.4599 349° North  Level Estimated

Login

Don't have an account? Register now (free) for customized features, flight alerts, and more!